Time;durP1;ratioP1;P1;durP2;ratioP2;P2;SDS_P1;SDS_P2;PMS_P1;PMS_P2;Temp;Humidity;BMP_temperature;BMP_pressure;BME280_temperature;BME280_humidity;BME280_pressure;Samples;Min_cycle;Max_cycle;Signal;HPM_P1;HPM_P2
2021/05/02 00:00:21;;;;;;;61.37;36.53;;;6.50;87.40;;;;;;5070768;28;20036;-63
2021/05/02 00:02:47;;;;;;;55.77;33.50;;;6.50;87.50;;;;;;5069932;28;20028;-63
2021/05/02 00:05:15;;;;;;;54.77;34.50;;;6.40;87.60;;;;;;5070593;28;20503;-63
2021/05/02 00:07:41;;;;;;;59.53;35.80;;;6.40;87.60;;;;;;5070027;28;20032;-65
2021/05/02 00:10:09;;;;;;;57.03;35.93;;;6.40;87.60;;;;;;5070426;28;20369;-63
2021/05/02 00:12:34;;;;;;;58.30;36.13;;;6.40;87.50;;;;;;5070704;28;20396;-63
2021/05/02 00:15:00;;;;;;;57.20;34.43;;;6.40;87.50;;;;;;5069517;28;20040;-63
2021/05/02 00:17:27;;;;;;;55.30;33.77;;;6.40;87.50;;;;;;5069260;28;20037;-63
2021/05/02 00:19:53;;;;;;;58.27;36.17;;;6.30;87.60;;;;;;5070800;28;20040;-63
2021/05/02 00:22:20;;;;;;;59.87;35.67;;;6.30;87.70;;;;;;5070113;28;20037;-63
2021/05/02 00:24:48;;;;;;;56.40;34.47;;;6.30;87.90;;;;;;5068550;28;20032;-64
2021/05/02 00:27:14;;;;;;;62.87;36.67;;;6.30;88.10;;;;;;5071593;28;20090;-63
2021/05/02 00:29:42;;;;;;;58.73;34.87;;;6.20;88.00;;;;;;5073978;28;20165;-63
2021/05/02 00:32:08;;;;;;;54.57;33.57;;;6.20;88.20;;;;;;5074066;28;20036;-63
2021/05/02 00:34:35;;;;;;;55.53;33.27;;;6.20;88.20;;;;;;5072918;28;20519;-63
2021/05/02 00:37:03;;;;;;;52.70;33.03;;;6.20;88.10;;;;;;5073903;28;20511;-63
2021/05/02 00:39:29;;;;;;;57.17;35.13;;;6.20;88.10;;;;;;5073629;28;20508;-63
2021/05/02 00:41:58;;;;;;;61.77;37.13;;;6.20;88.10;;;;;;5072418;28;20048;-63
2021/05/02 00:44:45;;;;;;;58.87;35.03;;;6.10;88.20;;;;;;5073039;28;20036;-64
2021/05/02 00:47:15;;;;;;;57.73;34.10;;;6.10;88.30;;;;;;5073504;28;20048;-63
2021/05/02 00:49:52;;;;;;;54.53;32.57;;;6.10;88.40;;;;;;5072318;28;20052;-66
2021/05/02 00:52:35;;;;;;;52.77;31.30;;;6.10;88.50;;;;;;5073449;28;20060;-63
2021/05/02 00:55:08;;;;;;;58.47;34.13;;;6.10;88.70;;;;;;5072889;28;20493;-63
2021/05/02 00:57:56;;;;;;;63.13;36.93;;;6.00;88.70;;;;;;5073416;28;20381;-63
2021/05/02 01:00:22;;;;;;;61.27;36.07;;;6.10;88.90;;;;;;5072952;28;20032;-63
2021/05/02 01:02:56;;;;;;;67.67;37.50;;;6.10;89.00;;;;;;5055016;28;20423;-63
2021/05/02 01:05:22;;;;;;;65.50;37.23;;;6.10;89.30;;;;;;5073010;28;20068;-63
2021/05/02 01:07:54;;;;;;;62.83;36.73;;;6.10;89.50;;;;;;5073484;28;20056;-63
2021/05/02 01:10:20;;;;;;;56.80;35.23;;;6.20;89.60;;;;;;5071964;28;20025;-63
2021/05/02 01:12:49;;;;;;;58.10;34.37;;;6.20;89.70;;;;;;5071579;28;20044;-63
2021/05/02 01:15:22;;;;;;;59.03;36.57;;;6.20;89.70;;;;;;5071557;28;20041;-63
2021/05/02 01:17:59;;;;;;;58.93;35.87;;;6.30;89.70;;;;;;5071296;28;20047;-63
2021/05/02 01:20:29;;;;;;;61.43;36.97;;;6.30;89.50;;;;;;5073119;28;20078;-63
2021/05/02 01:22:59;;;;;;;61.47;37.47;;;6.30;89.40;;;;;;5072059;28;20630;-63
2021/05/02 01:25:25;;;;;;;55.80;34.55;;;6.30;89.40;;;;;;5071857;28;20059;-63
2021/05/02 01:27:56;;;;;;;55.83;35.60;;;6.30;89.30;;;;;;5072720;28;20040;-63
2021/05/02 01:30:23;;;;;;;;;;;6.30;89.30;;;;;;5073296;28;20508;-63
2021/05/02 01:32:49;;;;;;;58.53;36.93;;;6.30;89.40;;;;;;5053884;28;20441;-64
2021/05/02 01:35:15;;;;;;;59.10;37.70;;;6.30;89.40;;;;;;5072578;28;20221;-63
2021/05/02 01:37:40;;;;;;;55.77;35.77;;;6.30;89.40;;;;;;5071656;28;20029;-63
2021/05/02 01:40:07;;;;;;;54.90;35.07;;;6.30;89.40;;;;;;5072173;28;20373;-63
2021/05/02 01:42:33;;;;;;;53.60;34.53;;;6.30;89.50;;;;;;5072835;28;20059;-63
2021/05/02 01:44:59;;;;;;;58.53;36.00;;;6.30;89.50;;;;;;5070761;28;20020;-63
2021/05/02 01:47:27;;;;;;;54.73;35.47;;;6.20;89.80;;;;;;5072168;28;20403;-63
2021/05/02 01:50:04;;;;;;;55.40;33.83;;;6.20;89.90;;;;;;5072329;28;20541;-63
2021/05/02 01:52:34;;;;;;;52.93;34.33;;;6.30;90.00;;;;;;5054208;28;20058;-63
2021/05/02 01:55:02;;;;;;;51.73;33.20;;;6.30;90.00;;;;;;5071782;28;20032;-63
2021/05/02 01:57:30;;;;;;;50.50;32.57;;;6.30;90.00;;;;;;5070710;28;20114;-63
2021/05/02 02:00:04;;;;;;;53.97;33.00;;;6.30;90.00;;;;;;5071145;28;20507;-63
2021/05/02 02:02:32;;;;;;;51.10;31.57;;;6.30;90.00;;;;;;5071789;28;20029;-63
2021/05/02 02:04:58;;;;;;;47.90;31.73;;;6.30;90.00;;;;;;5071403;28;20029;-63
2021/05/02 02:07:25;;;;;;;46.70;30.43;;;6.30;90.00;;;;;;5072256;28;20040;-63
2021/05/02 02:09:52;;;;;;;52.37;32.60;;;6.30;89.90;;;;;;5071836;28;20569;-63
2021/05/02 02:12:17;;;;;;;48.10;31.17;;;6.30;89.80;;;;;;5071931;28;20082;-63
2021/05/02 02:14:43;;;;;;;49.10;32.67;;;6.30;89.90;;;;;;5071350;28;20036;-63
2021/05/02 02:17:09;;;;;;;53.73;34.03;;;6.30;90.00;;;;;;5071525;28;20484;-63
2021/05/02 02:19:36;;;;;;;51.30;33.33;;;6.30;90.00;;;;;;5070672;28;20052;-64
2021/05/02 02:22:03;;;;;;;54.20;34.80;;;6.30;90.10;;;;;;5071050;28;20047;-63
2021/05/02 02:25:03;;;;;;;50.73;32.40;;;6.30;90.10;;;;;;5071179;28;20549;-63
2021/05/02 02:27:31;;;;;;;50.73;32.80;;;6.30;90.10;;;;;;5070372;28;20048;-63
2021/05/02 02:30:05;;;;;;;53.33;35.07;;;6.30;90.10;;;;;;5071740;28;20051;-63
2021/05/02 02:32:34;;;;;;;49.23;31.73;;;6.30;90.00;;;;;;5070299;28;20045;-63
2021/05/02 02:35:04;;;;;;;54.17;34.70;;;6.30;90.00;;;;;;5070889;28;20033;-63
2021/05/02 02:37:30;;;;;;;51.97;33.53;;;6.30;90.00;;;;;;5070962;28;20136;-63
2021/05/02 02:40:02;;;;;;;57.77;37.40;;;6.30;90.00;;;;;;5071499;28;20052;-63
2021/05/02 02:42:29;;;;;;;58.00;36.63;;;6.30;90.00;;;;;;5071117;28;20036;-63
2021/05/02 02:44:57;;;;;;;60.20;38.93;;;6.30;90.10;;;;;;5069488;28;20081;-63
2021/05/02 02:47:29;;;;;;;57.67;36.53;;;6.30;90.10;;;;;;5070088;28;20040;-63
2021/05/02 02:49:58;;;;;;;56.77;35.57;;;6.30;90.10;;;;;;5070622;28;20508;-63
2021/05/02 02:52:26;;;;;;;60.37;37.93;;;6.30;90.10;;;;;;5071376;28;20036;-63
2021/05/02 02:55:07;;;;;;;57.97;36.80;;;6.30;90.20;;;;;;5068792;28;20024;-63
2021/05/02 02:57:59;;;;;;;;;;;6.30;90.30;;;;;;5071893;28;20041;-63
2021/05/02 03:00:30;;;;;;;55.67;34.03;;;6.30;90.20;;;;;;5067855;28;19969;-63
2021/05/02 03:03:13;;;;;;;60.00;36.00;;;6.30;90.20;;;;;;5053743;28;20052;-63
2021/05/02 03:05:40;;;;;;;64.57;37.73;;;6.30;90.30;;;;;;5070985;28;20495;-63
2021/05/02 03:08:08;;;;;;;62.67;37.80;;;6.30;90.50;;;;;;5071162;28;20037;-63
2021/05/02 03:10:35;;;;;;;65.70;39.67;;;6.40;90.50;;;;;;5070517;28;20400;-63
2021/05/02 03:13:01;;;;;;;66.10;39.90;;;6.40;90.50;;;;;;5069346;28;20037;-63
2021/05/02 03:15:28;;;;;;;66.00;39.13;;;6.40;90.60;;;;;;5070653;28;20488;-64
2021/05/02 03:18:16;;;;;;;65.90;37.93;;;6.50;90.70;;;;;;5071164;28;20094;-63
2021/05/02 03:20:45;;;;;;;63.50;38.73;;;6.50;90.70;;;;;;5070828;28;20033;-63
2021/05/02 03:23:19;;;;;;;61.03;38.10;;;6.50;90.70;;;;;;5070544;28;20049;-63
2021/05/02 03:25:48;;;;;;;62.33;37.80;;;6.60;90.60;;;;;;5070616;28;20041;-64
2021/05/02 03:28:20;;;;;;;68.87;39.23;;;6.60;90.60;;;;;;5069601;28;20492;-63
2021/05/02 03:30:47;;;;;;;67.43;39.67;;;6.60;90.70;;;;;;5069769;28;20044;-63
2021/05/02 03:33:15;;;;;;;55.43;34.80;;;6.60;90.70;;;;;;5068629;28;20738;-63
2021/05/02 03:35:44;;;;;;;58.90;35.97;;;6.70;90.60;;;;;;5069672;28;20032;-63
2021/05/02 03:38:28;;;;;;;56.63;35.80;;;6.60;90.60;;;;;;5070726;28;20029;-63
2021/05/02 03:40:56;;;;;;;65.03;38.93;;;6.60;90.60;;;;;;5071003;28;20266;-63
2021/05/02 03:43:22;;;;;;;62.73;38.37;;;6.60;90.80;;;;;;5069840;28;20040;-63
2021/05/02 03:45:48;;;;;;;61.40;37.37;;;6.60;90.60;;;;;;5071081;28;20040;-63
2021/05/02 03:48:14;;;;;;;68.33;39.43;;;6.60;90.50;;;;;;5070496;28;20458;-64
2021/05/02 03:50:39;;;;;;;60.97;37.07;;;6.60;90.50;;;;;;5070773;28;20552;-63
2021/05/02 03:53:05;;;;;;;64.13;37.90;;;6.50;90.50;;;;;;5068882;28;20127;-63
2021/05/02 03:55:41;;;;;;;64.13;38.87;;;6.50;90.50;;;;;;5070265;28;20043;-63
2021/05/02 03:58:08;;;;;;;56.20;34.70;;;6.50;90.50;;;;;;5071053;28;20036;-63
2021/05/02 04:00:35;;;;;;;59.57;35.47;;;6.50;90.50;;;;;;5070721;28;20043;-63
2021/05/02 04:03:00;;;;;;;65.43;39.30;;;6.50;90.80;;;;;;5072525;28;20446;-63
2021/05/02 04:05:26;;;;;;;66.17;37.83;;;6.50;90.60;;;;;;5074405;28;20037;-63
2021/05/02 04:07:52;;;;;;;64.67;38.33;;;6.50;90.70;;;;;;5074251;28;20081;-63
2021/05/02 04:10:17;;;;;;;63.93;38.77;;;6.50;90.70;;;;;;5074502;28;20496;-64
2021/05/02 04:12:43;;;;;;;65.80;39.37;;;6.50;90.80;;;;;;5073947;28;20513;-63
2021/05/02 04:15:09;;;;;;;64.40;39.00;;;6.50;90.80;;;;;;5073713;28;20032;-63
2021/05/02 04:17:35;;;;;;;65.73;39.27;;;6.50;90.80;;;;;;5074135;28;20484;-63
2021/05/02 04:20:00;;;;;;;59.47;38.03;;;6.60;90.90;;;;;;5073931;28;20119;-63
2021/05/02 04:22:30;;;;;;;69.47;39.53;;;6.60;90.90;;;;;;5074201;28;20056;-64
2021/05/02 04:24:55;;;;;;;68.27;39.37;;;6.70;91.20;;;;;;5071525;28;20036;-63
2021/05/02 04:27:21;;;;;;;66.30;39.93;;;6.70;91.20;;;;;;5074170;28;20519;-63
2021/05/02 04:29:47;;;;;;;63.10;36.50;;;6.80;91.20;;;;;;5072715;28;20083;-63
2021/05/02 04:32:12;;;;;;;59.90;36.93;;;6.80;91.20;;;;;;5073508;28;20039;-64
2021/05/02 04:34:38;;;;;;;61.70;36.50;;;6.90;91.20;;;;;;5073476;28;20032;-63
2021/05/02 04:37:04;;;;;;;59.60;36.83;;;6.90;91.20;;;;;;5073614;28;20507;-64
2021/05/02 04:39:30;;;;;;;67.53;38.30;;;7.00;91.30;;;;;;5072596;28;20036;-63
2021/05/02 04:41:56;;;;;;;66.13;38.87;;;7.00;91.30;;;;;;5073778;28;20037;-63
2021/05/02 04:44:22;;;;;;;68.20;39.30;;;7.10;91.30;;;;;;5072838;28;20047;-63
2021/05/02 04:46:48;;;;;;;99.23;36.13;;;7.20;91.30;;;;;;5073787;28;20119;-63
2021/05/02 04:49:14;;;;;;;65.90;37.50;;;7.20;91.10;;;;;;5073682;28;20143;-63
2021/05/02 04:51:40;;;;;;;72.23;36.83;;;7.20;91.10;;;;;;5073172;28;20040;-64
2021/05/02 04:54:07;;;;;;;63.33;36.90;;;7.30;91.20;;;;;;5072855;28;20036;-63
2021/05/02 04:56:33;;;;;;;95.70;36.43;;;7.30;91.20;;;;;;5073098;28;20029;-64
2021/05/02 04:59:01;;;;;;;66.13;35.63;;;7.30;91.10;;;;;;5073724;28;20053;-64
2021/05/02 05:01:27;;;;;;;69.80;36.63;;;7.30;91.10;;;;;;5073468;28;20032;-64
2021/05/02 05:03:55;;;;;;;62.27;35.27;;;7.40;91.00;;;;;;5072454;28;20472;-64
2021/05/02 05:06:21;;;;;;;71.93;36.23;;;7.40;91.00;;;;;;5072380;28;20037;-64
2021/05/02 05:08:46;;;;;;;63.60;35.17;;;7.40;91.10;;;;;;5071799;28;20039;-64
2021/05/02 05:11:12;;;;;;;66.67;37.27;;;7.40;91.30;;;;;;5072713;28;20384;-64
2021/05/02 05:13:38;;;;;;;74.30;36.23;;;7.50;91.30;;;;;;5072916;28;20118;-63
2021/05/02 05:16:04;;;;;;;75.27;35.40;;;7.50;91.20;;;;;;5071639;28;20485;-64
2021/05/02 05:18:29;;;;;;;67.20;35.53;;;7.60;91.20;;;;;;5073331;28;20048;-64
2021/05/02 05:20:56;;;;;;;63.07;36.10;;;7.60;91.10;;;;;;5073118;28;20039;-64
2021/05/02 05:23:22;;;;;;;65.63;34.97;;;7.60;91.10;;;;;;5069300;28;20059;-64
2021/05/02 05:25:48;;;;;;;70.30;35.03;;;7.70;91.20;;;;;;5038598;28;20053;-64
2021/05/02 05:28:14;;;;;;;56.60;33.83;;;7.70;91.10;;;;;;5033767;28;20037;-64
2021/05/02 05:30:40;;;;;;;59.13;34.63;;;7.80;91.00;;;;;;5035974;28;20397;-64
2021/05/02 05:33:07;;;;;;;56.43;34.03;;;7.80;91.00;;;;;;5034081;28;20390;-64
2021/05/02 05:35:35;;;;;;;58.20;35.00;;;7.80;91.10;;;;;;5046090;28;20037;-64
2021/05/02 05:38:01;;;;;;;54.90;34.33;;;7.90;91.10;;;;;;5051560;28;20029;-64
2021/05/02 05:40:27;;;;;;;53.00;34.53;;;8.00;91.10;;;;;;5051447;28;20040;-64
2021/05/02 05:42:53;;;;;;;53.03;35.13;;;8.10;91.10;;;;;;5050669;28;20377;-63
2021/05/02 05:45:20;;;;;;;53.07;34.10;;;8.10;91.10;;;;;;5052701;28;20051;-63
2021/05/02 05:47:47;;;;;;;48.50;32.53;;;8.20;91.10;;;;;;5052101;28;20041;-64
2021/05/02 05:50:14;;;;;;;50.27;33.70;;;8.30;90.90;;;;;;5050890;28;19948;-64
2021/05/02 05:52:42;;;;;;;47.80;31.80;;;8.30;90.90;;;;;;5052477;28;20033;-64
2021/05/02 05:55:09;;;;;;;47.97;32.30;;;8.40;91.10;;;;;;5051637;28;20511;-63
2021/05/02 05:57:34;;;;;;;47.07;30.23;;;8.50;91.00;;;;;;5052471;28;20033;-63
2021/05/02 06:00:00;;;;;;;44.57;30.40;;;8.60;90.80;;;;;;5051992;28;20041;-64
2021/05/02 06:02:26;;;;;;;44.07;30.33;;;8.60;90.40;;;;;;5052311;28;20060;-63
2021/05/02 06:04:51;;;;;;;46.33;31.50;;;8.60;90.50;;;;;;5051831;28;20029;-63
2021/05/02 06:07:17;;;;;;;48.40;32.40;;;8.60;90.60;;;;;;5052906;28;20021;-64
2021/05/02 06:09:43;;;;;;;42.60;30.13;;;8.70;90.70;;;;;;5051645;28;20064;-64
2021/05/02 06:12:08;;;;;;;43.73;29.57;;;8.90;90.80;;;;;;5052002;28;20416;-64
2021/05/02 06:14:34;;;;;;;43.03;30.80;;;9.10;90.80;;;;;;5052271;28;20037;-64
2021/05/02 06:17:00;;;;;;;40.13;28.83;;;9.20;90.90;;;;;;5050947;28;20036;-64
2021/05/02 06:19:27;;;;;;;37.93;27.33;;;9.50;90.90;;;;;;5050306;28;20571;-64
2021/05/02 06:21:52;;;;;;;42.73;28.43;;;9.70;90.80;;;;;;5051918;28;20380;-64
2021/05/02 06:24:18;;;;;;;38.70;28.47;;;9.80;90.10;;;;;;5032937;28;20066;-64
2021/05/02 06:26:44;;;;;;;36.85;27.08;;;9.90;90.30;;;;;;5051424;28;20040;-64
2021/05/02 06:29:10;;;;;;;34.88;26.63;;;10.10;90.30;;;;;;5033933;28;20052;-64
2021/05/02 06:31:35;;;;;;;33.60;24.63;;;10.30;90.10;;;;;;5050881;28;20060;-64
2021/05/02 06:34:01;;;;;;;30.63;22.58;;;10.70;91.00;;;;;;5046935;28;20037;-64
2021/05/02 06:36:26;;;;;;;28.75;22.00;;;11.50;91.30;;;;;;5031318;28;20091;-64
2021/05/02 06:38:52;;;;;;;28.65;22.45;;;12.50;91.30;;;;;;5029934;28;20041;-64
2021/05/02 06:41:18;;;;;;;24.38;19.90;;;13.50;91.00;;;;;;5033430;28;20055;-64
2021/05/02 06:43:43;;;;;;;25.65;20.55;;;14.40;90.50;;;;;;5044522;28;20041;-64
2021/05/02 06:46:26;;;;;;;24.45;20.25;;;15.30;90.00;;;;;;5046254;28;20029;-65
2021/05/02 06:48:53;;;;;;;20.60;17.33;;;16.20;87.70;;;;;;5035194;28;20404;-64
2021/05/02 06:51:19;;;;;;;19.80;16.95;;;17.00;84.30;;;;;;5050344;28;20041;-65
2021/05/02 06:53:45;;;;;;;21.55;18.23;;;17.40;80.90;;;;;;5049199;28;20059;-64
2021/05/02 06:56:10;;;;;;;19.55;17.30;;;17.60;78.50;;;;;;5032253;28;20057;-65
2021/05/02 06:58:36;;;;;;;20.80;17.58;;;18.00;79.30;;;;;;5031448;28;20436;-65
2021/05/02 07:01:02;;;;;;;21.38;19.08;;;18.80;77.20;;;;;;5031295;28;20439;-65
2021/05/02 07:03:27;;;;;;;18.55;16.35;;;19.00;73.90;;;;;;5029601;28;20516;-65
2021/05/02 07:05:53;;;;;;;20.20;17.20;;;19.00;70.20;;;;;;5035367;28;20393;-65
2021/05/02 07:08:19;;;;;;;18.65;16.33;;;18.70;69.30;;;;;;5038772;28;20474;-65
2021/05/02 07:10:45;;;;;;;17.60;15.15;;;18.50;67.90;;;;;;5030882;28;20041;-64
2021/05/02 07:13:11;;;;;;;19.80;16.75;;;18.10;66.20;;;;;;5030457;28;20033;-64
2021/05/02 07:15:38;;;;;;;18.50;16.13;;;17.40;65.90;;;;;;5030340;28;20026;-65
2021/05/02 07:18:04;;;;;;;18.42;16.35;;;17.10;67.00;;;;;;5038179;28;20108;-65
2021/05/02 07:20:29;;;;;;;17.92;16.02;;;17.30;67.50;;;;;;5040654;28;20033;-65
2021/05/02 07:22:55;;;;;;;22.23;19.25;;;17.50;67.50;;;;;;5032932;28;20116;-65
2021/05/02 07:25:24;;;;;;;20.55;18.15;;;17.70;65.50;;;;;;5049237;28;20041;-65
2021/05/02 07:27:51;;;;;;;22.83;19.25;;;18.40;67.50;;;;;;5037822;28;20429;-65
2021/05/02 07:30:19;;;;;;;22.10;19.15;;;19.90;67.00;;;;;;5030948;28;20037;-65
2021/05/02 07:32:45;;;;;;;18.55;16.08;;;21.50;64.70;;;;;;5030634;28;20068;-66
2021/05/02 07:35:11;;;;;;;15.70;14.07;;;22.80;61.40;;;;;;5032856;28;20026;-65
2021/05/02 07:37:37;;;;;;;15.05;13.25;;;23.30;57.90;;;;;;5071092;28;20037;-66
2021/05/02 07:40:03;;;;;;;12.90;11.50;;;23.30;55.10;;;;;;5074081;28;20480;-66
2021/05/02 07:42:29;;;;;;;14.68;12.55;;;23.20;54.20;;;;;;5055311;28;20086;-66
2021/05/02 07:44:55;;;;;;;13.02;11.65;;;23.00;52.10;;;;;;5072683;28;20041;-66
2021/05/02 07:47:20;;;;;;;12.75;11.43;;;23.00;51.50;;;;;;5072880;28;20029;-65
2021/05/02 07:49:47;;;;;;;13.77;12.18;;;23.20;50.50;;;;;;5074479;28;20045;-66
2021/05/02 07:52:13;;;;;;;13.20;11.75;;;22.80;50.50;;;;;;5061603;28;20060;-66
2021/05/02 07:54:39;;;;;;;12.75;11.30;;;23.70;50.70;;;;;;5052357;28;20503;-65
2021/05/02 07:57:05;;;;;;;11.93;10.70;;;24.10;48.30;;;;;;5054248;28;20097;-65
2021/05/02 07:59:30;;;;;;;11.23;9.63;;;23.50;44.90;;;;;;5053083;28;20037;-65
2021/05/02 08:01:56;;;;;;;12.15;10.60;;;22.20;44.60;;;;;;5054211;28;20402;-65
2021/05/02 08:04:22;;;;;;;11.65;10.27;;;22.10;47.30;;;;;;5053434;28;20041;-66
2021/05/02 08:06:47;;;;;;;11.93;10.10;;;21.90;45.70;;;;;;5054151;28;20120;-65
2021/05/02 08:09:13;;;;;;;12.18;9.95;;;21.50;45.30;;;;;;5052928;28;20409;-65
2021/05/02 08:11:38;;;;;;;11.73;10.43;;;20.90;44.90;;;;;;5052641;28;20516;-65
2021/05/02 08:14:04;;;;;;;12.93;10.35;;;20.50;45.80;;;;;;5052495;28;20029;-65
2021/05/02 08:16:30;;;;;;;11.07;9.60;;;21.40;49.00;;;;;;5054045;28;20048;-65
2021/05/02 08:18:56;;;;;;;11.73;9.50;;;22.20;46.30;;;;;;5035575;28;20044;-65
2021/05/02 08:21:23;;;;;;;10.55;8.85;;;21.90;43.70;;;;;;5052678;28;20124;-65
2021/05/02 08:23:49;;;;;;;12.65;9.57;;;21.00;42.80;;;;;;5051875;28;20033;-65
2021/05/02 08:26:15;;;;;;;11.20;9.75;;;20.30;43.60;;;;;;5053958;28;20044;-65
2021/05/02 08:28:41;;;;;;;12.15;10.82;;;19.50;43.90;;;;;;5053703;28;20037;-64
2021/05/02 08:31:07;;;;;;;11.98;10.60;;;18.90;44.50;;;;;;5052162;28;20029;-65
2021/05/02 08:33:33;;;;;;;11.52;9.70;;;18.30;45.20;;;;;;5051802;28;20441;-64
2021/05/02 08:35:58;;;;;;;12.45;10.13;;;17.90;46.30;;;;;;5053309;28;20112;-65
2021/05/02 08:38:24;;;;;;;12.50;10.25;;;17.90;48.10;;;;;;5052420;28;20044;-64
2021/05/02 08:40:50;;;;;;;13.23;10.20;;;17.90;47.60;;;;;;5053278;28;20056;-64
2021/05/02 08:43:18;;;;;;;11.68;9.48;;;17.80;47.20;;;;;;5052025;28;20214;-64
2021/05/02 08:45:44;;;;;;;12.35;9.38;;;17.50;47.20;;;;;;5051693;28;20112;-64
2021/05/02 08:48:10;;;;;;;10.88;8.25;;;17.40;47.50;;;;;;5052089;28;20071;-65
2021/05/02 08:50:36;;;;;;;10.77;8.20;;;17.40;48.00;;;;;;5024833;28;20056;-64
2021/05/02 08:53:05;;;;;;;10.85;8.70;;;17.50;48.50;;;;;;5031189;28;20468;-64
2021/05/02 08:55:31;;;;;;;10.75;8.43;;;17.80;48.50;;;;;;5036407;28;20049;-65
2021/05/02 08:57:57;;;;;;;10.48;7.97;;;17.80;47.00;;;;;;5053275;28;20044;-64
2021/05/02 09:00:22;;;;;;;10.73;8.48;;;17.60;47.50;;;;;;5052778;28;20056;-64
2021/05/02 09:02:55;;;;;;;13.63;9.10;;;17.50;47.50;;;;;;5052608;28;20120;-64
2021/05/02 09:05:22;;;;;;;10.57;8.73;;;17.40;47.60;;;;;;5053122;28;20045;-64
2021/05/02 09:07:47;;;;;;;10.90;8.63;;;17.30;47.80;;;;;;5052122;28;20381;-64
2021/05/02 09:10:15;;;;;;;10.50;7.60;;;17.10;46.90;;;;;;5045020;28;20045;-64
2021/05/02 09:12:42;;;;;;;10.05;8.02;;;16.90;47.70;;;;;;5053081;28;20649;-64
2021/05/02 09:15:20;;;;;;;10.65;8.48;;;17.00;49.00;;;;;;5062521;28;20429;-64
2021/05/02 09:17:51;;;;;;;11.00;8.68;;;17.40;48.70;;;;;;5056968;28;20044;-64
2021/05/02 09:20:44;;;;;;;9.30;7.53;;;18.40;50.10;;;;;;5068747;28;20032;-64
2021/05/02 09:23:11;;;;;;;10.32;7.50;;;18.90;48.20;;;;;;5060582;28;20081;-64
2021/05/02 09:26:04;;;;;;;10.35;8.10;;;18.80;46.30;;;;;;5057961;28;20440;-64
2021/05/02 09:28:49;;;;;;;10.77;8.32;;;18.30;45.60;;;;;;5025217;28;20045;-64
2021/05/02 09:31:32;;;;;;;11.45;8.75;;;17.50;44.80;;;;;;5040768;28;20036;-64
2021/05/02 09:34:21;;;;;;;11.00;8.27;;;16.70;45.80;;;;;;5045388;28;20044;-63
2021/05/02 09:36:57;;;;;;;12.10;8.40;;;16.20;47.00;;;;;;5037263;28;20463;-64
2021/05/02 09:39:48;;;;;;;9.93;7.05;;;16.10;48.70;;;;;;5049773;28;20435;-64
2021/05/02 09:42:32;;;;;;;10.02;6.97;;;16.20;48.60;;;;;;5038909;28;20037;-64
2021/05/02 09:45:00;;;;;;;9.70;7.13;;;16.10;47.80;;;;;;5064533;28;20048;-64
2021/05/02 09:47:30;;;;;;;9.70;7.22;;;16.10;48.00;;;;;;5055387;28;20128;-64
2021/05/02 09:50:04;;;;;;;11.05;7.53;;;16.20;48.00;;;;;;5065105;28;20037;-64
2021/05/02 09:52:47;;;;;;;9.95;7.57;;;16.40;48.70;;;;;;5061366;28;20071;-64
2021/05/02 09:55:32;;;;;;;10.77;6.78;;;16.50;48.10;;;;;;5054219;28;20120;-64
2021/05/02 09:58:10;;;;;;;9.77;7.10;;;16.50;47.70;;;;;;5041390;28;20037;-64
2021/05/02 10:00:40;;;;;;;8.85;6.43;;;16.30;47.10;;;;;;5060818;28;20374;-64
2021/05/02 10:03:11;;;;;;;9.43;6.28;;;16.00;46.60;;;;;;5065714;28;20033;-64
2021/05/02 10:06:11;;;;;;;9.13;6.60;;;15.80;48.00;;;;;;5068865;28;20040;-64
2021/05/02 10:08:38;;;;;;;8.18;6.10;;;16.00;48.50;;;;;;5061931;28;20671;-64
2021/05/02 10:11:09;;;;;;;9.82;6.57;;;16.00;47.20;;;;;;5056767;28;20401;-61
2021/05/02 10:13:38;;;;;;;8.98;6.03;;;15.80;46.70;;;;;;5066779;28;20044;-66
2021/05/02 10:16:04;;;;;;;9.38;5.72;;;15.50;47.10;;;;;;5057451;28;20396;-65
2021/05/02 10:18:30;;;;;;;10.57;5.38;;;15.30;47.20;;;;;;5060813;28;20448;-64
2021/05/02 10:20:57;;;;;;;8.00;5.22;;;15.30;47.70;;;;;;5062612;28;20044;-64
2021/05/02 10:23:23;;;;;;;8.43;5.50;;;15.30;48.10;;;;;;5053378;28;20127;-61
2021/05/02 10:25:50;;;;;;;8.15;5.60;;;15.50;47.80;;;;;;5040674;28;20558;-61
2021/05/02 10:28:17;;;;;;;8.00;5.28;;;15.60;47.50;;;;;;5040812;28;20044;-64
2021/05/02 10:30:49;;;;;;;7.95;5.38;;;15.60;47.50;;;;;;5044843;28;20041;-64
2021/05/02 10:33:28;;;;;;;7.43;5.03;;;16.30;48.30;;;;;;5062361;28;20036;-65
2021/05/02 10:35:58;;;;;;;6.90;4.85;;;18.30;49.60;;;;;;5054424;28;20040;-65
2021/05/02 10:38:49;;;;;;;7.88;4.78;;;19.10;46.30;;;;;;5061511;28;20612;-65
2021/05/02 10:41:29;;;;;;;;;;;18.90;43.90;;;;;;5030979;28;20108;-65
2021/05/02 10:44:21;;;;;;;8.27;4.53;;;18.50;42.70;;;;;;5029289;28;19916;-63
2021/05/02 10:47:00;;;;;;;7.25;4.60;;;17.80;43.00;;;;;;5030544;28;20061;-63
2021/05/02 10:49:29;;;;;;;6.57;4.10;;;17.50;43.40;;;;;;5030742;28;20063;-63
2021/05/02 10:52:28;;;;;;;7.07;3.85;;;17.20;43.30;;;;;;5030573;28;20827;-63
2021/05/02 10:55:12;;;;;;;7.30;4.13;;;17.00;43.70;;;;;;5029622;28;20072;-63
2021/05/02 10:57:37;;;;;;;7.78;3.97;;;17.20;44.80;;;;;;5029870;28;20095;-63
2021/05/02 11:00:03;;;;;;;6.93;3.83;;;17.60;44.30;;;;;;5030109;28;20045;-63
2021/05/02 11:02:44;;;;;;;6.63;4.22;;;18.00;43.60;;;;;;5030841;28;20061;-63
2021/05/02 11:05:12;;;;;;;6.55;3.35;;;18.20;42.90;;;;;;5029795;28;20037;-63
2021/05/02 11:07:43;;;;;;;5.55;3.50;;;18.70;42.90;;;;;;5029495;28;20033;-64
2021/05/02 11:10:19;;;;;;;6.97;3.80;;;19.60;42.90;;;;;;5029957;28;20072;-64
2021/05/02 11:12:46;;;;;;;8.93;4.30;;;20.50;42.30;;;;;;5030418;28;20125;-64
2021/05/02 11:15:37;;;;;;;5.95;3.80;;;20.50;39.80;;;;;;5012559;28;20041;-64
2021/05/02 11:18:03;;;;;;;5.97;4.03;;;19.60;38.10;;;;;;5020232;28;20033;-63
2021/05/02 11:20:49;;;;;;;6.43;3.80;;;18.60;38.50;;;;;;5010778;28;20567;-63
2021/05/02 11:23:35;;;;;;;6.10;3.83;;;17.40;39.40;;;;;;5029338;28;20120;-62
2021/05/02 11:26:03;;;;;;;5.97;3.67;;;16.70;40.70;;;;;;5029365;28;20116;-68
2021/05/02 11:28:46;;;;;;;6.03;3.60;;;16.30;42.40;;;;;;5049316;28;20511;-67
2021/05/02 11:31:12;;;;;;;8.68;4.00;;;15.90;42.40;;;;;;5064326;28;20024;-67
2021/05/02 11:33:39;;;;;;;7.72;4.32;;;15.50;42.80;;;;;;5067589;28;20039;-66
2021/05/02 11:36:05;;;;;;;7.68;4.32;;;15.20;43.30;;;;;;5069310;28;20478;-66
2021/05/02 11:38:43;;;;;;;6.32;3.83;;;14.90;43.70;;;;;;5070792;28;20040;-66
2021/05/02 11:41:10;;;;;;;6.00;3.75;;;14.60;43.90;;;;;;5068702;28;20040;-67
2021/05/02 11:43:38;;;;;;;7.00;3.53;;;14.20;44.40;;;;;;5069390;28;20123;-66
2021/05/02 11:46:15;;;;;;;6.53;3.80;;;14.00;45.20;;;;;;5069885;28;20036;-66
2021/05/02 11:48:42;;;;;;;7.35;3.70;;;13.90;45.10;;;;;;5032351;28;20087;-66
2021/05/02 11:51:15;;;;;;;5.45;3.50;;;13.90;45.10;;;;;;5028617;28;20034;-66
2021/05/02 11:53:57;;;;;;;5.95;3.55;;;13.90;45.30;;;;;;5032487;28;20429;-67
2021/05/02 11:56:29;;;;;;;6.43;4.20;;;14.10;45.70;;;;;;5042949;28;20043;-66
2021/05/02 11:59:04;;;;;;;8.27;5.30;;;14.50;46.00;;;;;;5030278;28;20041;-67
2021/05/02 12:01:31;;;;;;;6.75;4.80;;;15.00;46.30;;;;;;5045378;28;20116;-67
2021/05/02 12:04:16;;;;;;;7.53;4.70;;;15.90;46.70;;;;;;5028789;28;20029;-67
2021/05/02 12:06:42;;;;;;;7.35;4.70;;;17.10;47.10;;;;;;5050857;28;20544;-68
2021/05/02 12:09:15;;;;;;;7.03;4.55;;;18.70;47.10;;;;;;5029471;28;20068;-68
2021/05/02 12:11:42;;;;;;;8.68;4.05;;;19.80;44.90;;;;;;5034188;28;20037;-67
2021/05/02 12:14:16;;;;;;;6.45;4.25;;;20.00;42.40;;;;;;5028828;28;20541;-67
2021/05/02 12:16:44;;;;;;;11.10;4.80;;;19.70;41.50;;;;;;5029693;28;20563;-69
2021/05/02 12:19:10;;;;;;;8.98;4.47;;;20.10;42.30;;;;;;5029781;28;20459;-68
2021/05/02 12:21:39;;;;;;;7.65;4.25;;;19.80;40.50;;;;;;5029226;28;20065;-69
2021/05/02 12:24:08;;;;;;;6.07;3.70;;;19.20;40.50;;;;;;5039577;28;20048;-67
2021/05/02 12:26:36;;;;;;;6.70;4.00;;;18.70;40.60;;;;;;5046993;28;20560;-67
2021/05/02 12:29:07;;;;;;;7.63;3.63;;;18.10;39.90;;;;;;5033203;28;20124;-67
2021/05/02 12:31:34;;;;;;;5.88;3.15;;;17.30;40.80;;;;;;5043678;28;20124;-67
2021/05/02 12:34:00;;;;;;;6.22;3.13;;;16.80;41.60;;;;;;5039904;28;20040;-65
2021/05/02 12:36:28;;;;;;;6.75;3.20;;;16.30;42.10;;;;;;5042309;28;20037;-67
2021/05/02 12:39:05;;;;;;;5.68;3.10;;;16.00;42.90;;;;;;5038711;28;20039;-66
2021/05/02 12:41:32;;;;;;;5.30;2.92;;;15.90;43.80;;;;;;5039368;28;20053;-66
2021/05/02 12:44:27;;;;;;;4.78;2.60;;;16.10;44.60;;;;;;5022687;28;20041;-68
2021/05/02 12:46:58;;;;;;;5.05;2.55;;;16.50;44.60;;;;;;5037876;28;20033;-67
2021/05/02 12:49:27;;;;;;;5.20;2.60;;;17.20;44.20;;;;;;5045142;28;20490;-67